createdAt,value
2022-09-26T00:01:32.776Z,9.71
2022-09-26T00:04:15.706Z,9.77
2022-09-26T00:06:43.537Z,9.81
2022-09-26T00:09:10.507Z,9.79
2022-09-26T00:11:37.827Z,9.79
2022-09-26T00:14:18.761Z,9.87
2022-09-26T00:16:46.280Z,9.91
2022-09-26T00:19:14.013Z,9.93
2022-09-26T00:21:41.024Z,9.94
2022-09-26T00:24:08.084Z,9.98
2022-09-26T00:26:36.896Z,10.02
2022-09-26T00:29:08.923Z,10.06
2022-09-26T00:31:43.180Z,10.07
2022-09-26T00:34:13.801Z,10.12
2022-09-26T00:36:40.984Z,10.07
2022-09-26T00:39:11.066Z,10.16
2022-09-26T00:41:38.622Z,10.16
2022-09-26T00:44:41.215Z,10.20
2022-09-26T00:47:26.367Z,10.18
2022-09-26T00:49:59.876Z,10.21
2022-09-26T00:53:04.796Z,10.21
2022-09-26T00:55:39.261Z,10.27
2022-09-26T00:58:12.990Z,10.28
2022-09-26T01:00:42.669Z,10.18
2022-09-26T01:03:09.867Z,10.28
2022-09-26T01:05:37.810Z,10.25
2022-09-26T01:08:06.016Z,10.25
2022-09-26T01:10:36.321Z,10.27
2022-09-26T01:13:04.730Z,10.25
2022-09-26T01:15:31.749Z,10.22
2022-09-26T01:17:58.760Z,10.26
2022-09-26T01:20:39.252Z,10.26
2022-09-26T01:24:05.544Z,10.25
2022-09-26T01:27:08.342Z,10.22
2022-09-26T01:30:12.185Z,10.23
2022-09-26T01:33:16.630Z,10.24
2022-09-26T01:36:02.961Z,10.19
2022-09-26T01:39:02.588Z,10.22
2022-09-26T01:41:54.494Z,10.22
2022-09-26T01:44:54.525Z,10.19
2022-09-26T01:47:55.620Z,10.23
2022-09-26T01:50:57.663Z,10.19
2022-09-26T01:53:47.093Z,10.21
2022-09-26T01:56:20.184Z,10.22
2022-09-26T01:59:02.861Z,10.22
2022-09-26T02:01:35.622Z,10.15
2022-09-26T02:04:13.412Z,10.20
2022-09-26T02:07:01.522Z,10.21
2022-09-26T02:09:40.523Z,10.19
2022-09-26T02:12:12.497Z,10.21
2022-09-26T02:14:41.825Z,10.21
2022-09-26T02:17:16.961Z,10.17
2022-09-26T02:20:06.101Z,10.17
2022-09-26T02:22:35.263Z,10.18
2022-09-26T02:25:04.339Z,10.14
2022-09-26T02:27:31.629Z,10.15
2022-09-26T02:29:59.300Z,10.12
2022-09-26T02:32:32.757Z,10.17
2022-09-26T02:35:01.656Z,10.12
2022-09-26T02:37:32.162Z,10.10
2022-09-26T02:40:00.975Z,10.13
2022-09-26T02:43:02.102Z,10.09
2022-09-26T02:45:46.153Z,10.10
2022-09-26T02:48:38.392Z,10.09
2022-09-26T02:51:40.488Z,10.03
2022-09-26T02:54:44.176Z,10.04
2022-09-26T02:57:55.594Z,10.01
2022-09-26T03:00:26.932Z,9.99
2022-09-26T03:03:19.852Z,9.98
2022-09-26T03:05:51.781Z,9.96
2022-09-26T03:08:25.976Z,9.96
2022-09-26T03:10:56.138Z,9.97
2022-09-26T03:13:25.346Z,9.92
2022-09-26T03:15:59.438Z,9.86
2022-09-26T03:18:51.989Z,9.86
2022-09-26T03:21:19.267Z,9.82
2022-09-26T03:23:46.878Z,9.83
2022-09-26T03:26:19.497Z,9.84
2022-09-26T03:28:46.867Z,9.79
2022-09-26T03:31:13.993Z,9.75
2022-09-26T03:33:40.936Z,9.75
2022-09-26T03:36:09.408Z,9.77
2022-09-26T03:38:36.411Z,9.75
2022-09-26T03:41:03.815Z,9.70
2022-09-26T03:43:31.363Z,9.70
2022-09-26T03:46:06.725Z,9.64
2022-09-26T03:48:34.479Z,9.67
2022-09-26T03:51:13.317Z,9.66
2022-09-26T03:53:43.902Z,9.67
2022-09-26T03:56:14.853Z,9.67
2022-09-26T03:58:43.469Z,9.62
2022-09-26T04:01:14.087Z,9.57
2022-09-26T04:03:49.995Z,9.61
2022-09-26T04:06:20.085Z,9.60
2022-09-26T04:08:50.513Z,9.60
2022-09-26T04:11:21.520Z,9.61
2022-09-26T04:13:52.484Z,9.58
2022-09-26T04:16:22.488Z,9.58
2022-09-26T04:18:49.964Z,9.52
2022-09-26T04:21:17.311Z,9.56
2022-09-26T04:23:45.309Z,9.59
2022-09-26T04:26:23.545Z,9.53
2022-09-26T04:28:54.430Z,9.55
2022-09-26T04:31:21.777Z,9.52
2022-09-26T04:33:49.073Z,9.46
2022-09-26T04:36:17.933Z,9.48
2022-09-26T04:38:44.948Z,9.46
2022-09-26T04:41:21.961Z,9.47
2022-09-26T04:43:49.592Z,9.46
2022-09-26T04:46:26.923Z,9.40
2022-09-26T04:48:59.164Z,9.50
2022-09-26T04:51:28.941Z,9.47
2022-09-26T04:53:56.502Z,9.47
2022-09-26T04:56:27.569Z,9.47
2022-09-26T04:58:57.220Z,9.43
2022-09-26T05:01:25.740Z,9.45
2022-09-26T05:03:55.036Z,9.41
2022-09-26T05:06:22.141Z,9.41
2022-09-26T05:08:49.138Z,9.38
2022-09-26T05:11:18.529Z,9.35
2022-09-26T05:13:48.089Z,9.32
2022-09-26T05:16:18.397Z,9.36
2022-09-26T05:18:48.670Z,9.36
2022-09-26T05:21:15.552Z,9.32
2022-09-26T05:24:01.242Z,9.31
2022-09-26T05:26:43.176Z,9.32
2022-09-26T05:29:11.817Z,9.34
2022-09-26T05:31:39.329Z,9.33
2022-09-26T05:34:16.863Z,9.27
2022-09-26T05:36:46.404Z,9.33
2022-09-26T05:39:32.159Z,9.27
2022-09-26T05:41:59.859Z,9.25
2022-09-26T05:44:28.208Z,9.25
2022-09-26T05:46:57.308Z,9.23
2022-09-26T05:49:25.070Z,9.26
2022-09-26T05:51:53.683Z,9.25
2022-09-26T05:54:20.690Z,9.27
2022-09-26T05:56:48.156Z,9.30
2022-09-26T05:59:15.150Z,9.26
2022-09-26T06:01:42.255Z,9.26
2022-09-26T06:04:10.417Z,9.24
2022-09-26T06:06:37.400Z,9.22
2022-09-26T06:09:07.038Z,9.23
2022-09-26T06:11:34.029Z,9.18
2022-09-26T06:14:01.252Z,9.21
2022-09-26T06:16:29.281Z,9.23
2022-09-26T06:18:56.519Z,9.25
2022-09-26T06:21:24.181Z,9.21
2022-09-26T06:23:51.398Z,9.22
2022-09-26T06:26:28.753Z,9.24
2022-09-26T06:29:00.677Z,9.23
2022-09-26T06:31:29.061Z,9.27
2022-09-26T06:33:56.677Z,9.26
2022-09-26T06:36:24.680Z,9.29
2022-09-26T06:38:55.861Z,9.30
2022-09-26T06:41:23.323Z,9.30
2022-09-26T06:43:50.218Z,9.34
2022-09-26T06:46:17.518Z,9.34
2022-09-26T06:48:44.608Z,9.39
2022-09-26T06:51:14.182Z,9.38
2022-09-26T06:53:42.492Z,9.42
2022-09-26T06:56:09.363Z,9.42
2022-09-26T06:58:36.275Z,9.46
2022-09-26T07:01:03.587Z,9.51
2022-09-26T07:03:30.924Z,9.55
2022-09-26T07:05:58.755Z,9.56
2022-09-26T07:08:43.739Z,9.55
2022-09-26T07:11:35.316Z,9.59
2022-09-26T07:14:01.902Z,9.66
2022-09-26T07:16:29.453Z,9.69
2022-09-26T07:18:57.041Z,9.76
2022-09-26T07:21:23.984Z,9.82
2022-09-26T07:23:50.949Z,9.85
2022-09-26T07:26:18.365Z,9.89
2022-09-26T07:28:46.383Z,9.95
2022-09-26T07:31:15.562Z,9.95
2022-09-26T07:33:42.595Z,10.00
2022-09-26T07:36:10.255Z,10.04
2022-09-26T07:38:37.361Z,10.02
2022-09-26T07:41:04.537Z,10.01
2022-09-26T07:44:04.609Z,10.05
2022-09-26T07:46:37.899Z,10.03
2022-09-26T07:49:23.596Z,10.05
2022-09-26T07:51:56.089Z,10.04
2022-09-26T07:54:24.086Z,10.04
2022-09-26T07:56:51.208Z,10.10
2022-09-26T07:59:18.575Z,10.04
2022-09-26T08:01:46.413Z,10.13
2022-09-26T08:04:14.495Z,10.10
2022-09-26T08:06:41.512Z,10.12
2022-09-26T08:09:08.599Z,10.17
2022-09-26T08:11:36.052Z,10.14
2022-09-26T08:14:03.466Z,10.17
2022-09-26T08:16:30.499Z,10.21
2022-09-26T08:18:58.696Z,10.26
2022-09-26T08:21:25.641Z,10.27
2022-09-26T08:23:53.493Z,10.34
2022-09-26T08:26:23.762Z,10.35
2022-09-26T08:28:51.916Z,10.39
2022-09-26T08:31:18.992Z,10.44
2022-09-26T08:33:46.013Z,10.47
2022-09-26T08:36:16.211Z,10.46
2022-09-26T08:38:43.120Z,10.49
2022-09-26T08:41:50.740Z,10.51
2022-09-26T08:44:47.959Z,10.50
2022-09-26T08:47:45.117Z,10.42
2022-09-26T08:50:51.689Z,10.42
2022-09-26T08:53:48.358Z,10.45
2022-09-26T08:56:27.139Z,10.40
2022-09-26T08:58:56.733Z,10.44
2022-09-26T09:01:29.162Z,10.49
2022-09-26T09:04:17.132Z,10.47
2022-09-26T09:06:44.649Z,10.49
2022-09-26T09:09:16.713Z,10.51
2022-09-26T09:12:05.008Z,10.56
2022-09-26T09:15:24.702Z,10.64
2022-09-26T09:18:24.217Z,10.56
2022-09-26T09:21:17.568Z,10.60
2022-09-26T09:24:12.563Z,10.59
2022-09-26T09:30:17.918Z,10.59
2022-09-26T09:33:13.083Z,10.63
2022-09-26T09:35:51.625Z,10.52
2022-09-26T09:38:27.011Z,10.55
2022-09-26T09:41:07.848Z,10.59
2022-09-26T09:43:54.511Z,10.56
2022-09-26T09:46:43.587Z,10.66
2022-09-26T09:49:10.449Z,10.71
2022-09-26T09:51:52.564Z,10.73
2022-09-26T09:54:56.237Z,10.76
2022-09-26T09:58:14.061Z,10.73
2022-09-26T10:00:51.380Z,10.79
2022-09-26T10:04:01.214Z,10.79
2022-09-26T10:06:45.968Z,10.83
2022-09-26T10:09:35.866Z,10.84
2022-09-26T10:12:19.108Z,10.86
2022-09-26T10:15:05.051Z,10.89
2022-09-26T10:17:31.952Z,10.97
2022-09-26T10:19:59.060Z,10.94
2022-09-26T10:22:42.363Z,10.98
2022-09-26T10:25:21.449Z,11.02
2022-09-26T10:27:55.049Z,11.03
2022-09-26T10:30:28.132Z,11.09
2022-09-26T10:32:59.592Z,11.04
2022-09-26T10:35:45.186Z,11.01
2022-09-26T10:38:27.384Z,11.02
2022-09-26T10:40:59.227Z,10.99
2022-09-26T10:43:39.156Z,10.95
2022-09-26T10:46:16.453Z,10.99
2022-09-26T10:48:55.325Z,10.92
2022-09-26T10:51:42.448Z,10.92
2022-09-26T10:54:16.301Z,10.89
2022-09-26T10:56:47.728Z,11.00
2022-09-26T10:59:17.551Z,10.85
2022-09-26T11:01:51.737Z,10.94
2022-09-26T11:04:46.987Z,10.82
2022-09-26T11:07:30.242Z,10.86
2022-09-26T11:10:05.139Z,10.93
2022-09-26T11:12:39.408Z,10.86
2022-09-26T11:15:13.723Z,10.95
2022-09-26T11:17:47.374Z,10.90
2022-09-26T11:20:45.869Z,10.98
2022-09-26T11:24:05.890Z,10.93
2022-09-26T11:27:01.264Z,11.00
2022-09-26T11:29:52.873Z,10.95
2022-09-26T11:32:32.357Z,11.01
2022-09-26T11:35:02.854Z,11.08
2022-09-26T11:38:12.814Z,11.01
2022-09-26T11:41:38.885Z,11.09
2022-09-26T11:44:28.298Z,11.14
2022-09-26T11:47:36.916Z,11.09
2022-09-26T11:50:40.080Z,11.10
2022-09-26T11:53:34.752Z,11.21
2022-09-26T11:56:26.461Z,11.05
2022-09-26T11:59:13.645Z,11.11
2022-09-26T12:02:02.246Z,11.15
2022-09-26T12:05:02.008Z,11.14
2022-09-26T12:08:00.530Z,11.10
2022-09-26T12:11:33.954Z,11.10
2022-09-26T12:14:39.491Z,11.07
2022-09-26T12:17:21.202Z,11.14
2022-09-26T12:19:56.293Z,11.12
2022-09-26T12:22:32.551Z,11.15
2022-09-26T12:25:24.303Z,11.17
2022-09-26T12:28:04.254Z,11.05
2022-09-26T12:30:51.900Z,11.21
2022-09-26T12:34:04.850Z,11.22
2022-09-26T12:36:57.873Z,11.26
2022-09-26T12:39:46.165Z,11.28
2022-09-26T12:42:32.546Z,11.27
2022-09-26T12:45:49.537Z,11.26
2022-09-26T12:48:46.651Z,11.29
2022-09-26T12:51:19.749Z,11.34
2022-09-26T12:54:04.844Z,11.35
2022-09-26T12:57:18.780Z,11.31
2022-09-26T13:00:22.084Z,11.33
2022-09-26T13:03:36.117Z,11.37
2022-09-26T13:06:38.299Z,11.41
2022-09-26T13:09:47.595Z,11.44
2022-09-26T13:12:40.538Z,11.34
2022-09-26T13:15:35.258Z,11.37
2022-09-26T13:18:25.865Z,11.40
2022-09-26T13:20:58.963Z,11.47
2022-09-26T13:23:35.796Z,11.46
2022-09-26T13:26:17.739Z,11.43
2022-09-26T13:29:18.040Z,11.46
2022-09-26T13:32:11.048Z,11.52
2022-09-26T13:35:01.794Z,11.53
2022-09-26T13:37:55.543Z,11.41
2022-09-26T13:41:23.356Z,11.41
2022-09-26T13:44:08.777Z,11.40
2022-09-26T13:47:26.940Z,11.50
2022-09-26T13:50:15.574Z,11.46
2022-09-26T13:53:32.246Z,11.54
2022-09-26T13:56:36.196Z,11.60
2022-09-26T13:59:34.491Z,11.67
2022-09-26T14:02:30.182Z,11.71
2022-09-26T14:05:02.991Z,11.81
2022-09-26T14:07:57.376Z,11.84
2022-09-26T14:10:38.629Z,11.94
2022-09-26T14:13:32.259Z,12.09
2022-09-26T14:16:03.002Z,12.12
2022-09-26T14:18:57.830Z,12.11
2022-09-26T14:21:38.280Z,12.23
2022-09-26T14:24:20.529Z,12.21
2022-09-26T14:27:12.172Z,12.22
2022-09-26T14:29:39.067Z,12.20
2022-09-26T14:32:10.177Z,12.20
2022-09-26T14:34:57.130Z,12.18
2022-09-26T14:37:24.103Z,12.15
2022-09-26T14:40:02.184Z,12.09
2022-09-26T14:42:44.287Z,12.10
2022-09-26T14:45:16.888Z,11.99
2022-09-26T14:48:07.928Z,12.01
2022-09-26T14:50:49.416Z,12.03
2022-09-26T14:53:46.993Z,11.84
2022-09-26T14:56:32.508Z,11.96
2022-09-26T14:59:29.838Z,11.96
2022-09-26T15:02:17.809Z,11.93
2022-09-26T15:04:50.305Z,11.86
2022-09-26T15:07:25.460Z,11.90
2022-09-26T15:10:08.272Z,11.82
2022-09-26T15:12:48.266Z,11.70
2022-09-26T15:16:09.705Z,11.73
2022-09-26T15:18:45.754Z,11.76
2022-09-26T15:21:41.663Z,11.72
2022-09-26T15:24:33.314Z,11.71
2022-09-26T15:27:18.095Z,11.78
2022-09-26T15:29:49.301Z,11.77
2022-09-26T15:32:28.159Z,11.71
2022-09-26T15:34:56.780Z,11.78
2022-09-26T15:37:31.616Z,11.72
2022-09-26T15:40:23.056Z,11.69
2022-09-26T15:43:02.020Z,11.66
2022-09-26T15:45:47.573Z,11.78
2022-09-26T15:48:20.607Z,11.74
2022-09-26T15:50:54.012Z,11.76
2022-09-26T15:53:47.724Z,11.69
2022-09-26T15:56:21.631Z,11.75
2022-09-26T15:59:19.430Z,11.77
2022-09-26T16:01:51.288Z,11.71
2022-09-26T16:04:30.137Z,11.77
2022-09-26T16:07:05.243Z,11.78
2022-09-26T16:09:33.139Z,11.79
2022-09-26T16:12:10.491Z,11.84
2022-09-26T16:15:05.955Z,11.86
2022-09-26T16:17:49.680Z,11.89
2022-09-26T16:20:16.500Z,11.85
2022-09-26T16:22:53.713Z,11.91
2022-09-26T16:25:25.728Z,11.96
2022-09-26T16:28:02.198Z,11.98
2022-09-26T16:30:32.192Z,11.92
2022-09-26T16:33:08.025Z,11.99
2022-09-26T16:35:38.826Z,12.00
2022-09-26T16:38:25.900Z,12.02
2022-09-26T16:41:08.384Z,11.99
2022-09-26T16:43:38.532Z,11.98
2022-09-26T16:46:14.631Z,11.97
2022-09-26T16:48:55.828Z,12.03
2022-09-26T16:51:39.471Z,12.02
2022-09-26T16:54:18.698Z,12.01
2022-09-26T16:56:49.087Z,11.95
2022-09-26T16:59:24.367Z,11.93
2022-09-26T17:01:57.870Z,11.89
2022-09-26T17:04:34.232Z,11.75
2022-09-26T17:07:09.675Z,11.75
2022-09-26T17:09:37.175Z,11.72
2022-09-26T17:12:13.477Z,11.68
2022-09-26T17:14:42.938Z,11.67
2022-09-26T17:17:21.838Z,11.57
2022-09-26T17:19:56.829Z,11.60
2022-09-26T17:22:26.518Z,11.58
2022-09-26T17:24:54.185Z,11.56
2022-09-26T17:27:28.856Z,11.50
2022-09-26T17:30:01.501Z,11.47
2022-09-26T17:32:32.798Z,11.42
2022-09-26T17:35:26.364Z,11.37
2022-09-26T17:37:54.625Z,11.36
2022-09-26T17:40:26.228Z,11.34
2022-09-26T17:42:56.419Z,11.26
2022-09-26T17:45:35.314Z,11.27
2022-09-26T17:48:13.794Z,11.31
2022-09-26T17:50:42.617Z,11.30
2022-09-26T17:53:21.015Z,11.24
2022-09-26T17:55:49.480Z,11.25
2022-09-26T17:58:17.966Z,11.22
2022-09-26T18:00:48.163Z,11.16
2022-09-26T18:03:26.073Z,11.13
2022-09-26T18:05:53.832Z,11.08
2022-09-26T18:08:33.854Z,11.03
2022-09-26T18:11:04.487Z,11.04
2022-09-26T18:13:35.827Z,10.86
2022-09-26T18:16:03.130Z,10.96
2022-09-26T18:18:32.423Z,10.93
2022-09-26T18:21:03.946Z,10.87
2022-09-26T18:23:47.289Z,10.87
2022-09-26T18:26:25.661Z,10.85
2022-09-26T18:28:52.900Z,10.84
2022-09-26T18:31:30.987Z,10.85
2022-09-26T18:33:58.747Z,10.83
2022-09-26T18:36:26.576Z,10.80
2022-09-26T18:38:53.540Z,10.78
2022-09-26T18:41:24.986Z,10.83
2022-09-26T18:43:53.960Z,10.81
2022-09-26T18:46:22.745Z,10.82
2022-09-26T18:48:51.331Z,10.85
2022-09-26T18:51:18.617Z,10.83
2022-09-26T18:53:45.591Z,10.79
2022-09-26T18:56:31.218Z,10.78
2022-09-26T18:58:58.106Z,10.80
2022-09-26T19:01:38.041Z,10.73
2022-09-26T19:04:12.881Z,10.75
2022-09-26T19:06:42.614Z,10.76
2022-09-26T19:09:16.010Z,10.76
2022-09-26T19:11:43.385Z,10.76
2022-09-26T19:14:21.259Z,10.72
2022-09-26T19:16:49.891Z,10.74
2022-09-26T19:19:18.013Z,10.72
2022-09-26T19:22:10.793Z,10.69
2022-09-26T19:25:00.696Z,10.67
2022-09-26T19:27:33.515Z,10.63
2022-09-26T19:30:13.965Z,10.62
2022-09-26T19:32:50.442Z,10.65
2022-09-26T19:35:30.260Z,10.56
2022-09-26T19:37:59.739Z,10.60
2022-09-26T19:40:28.156Z,10.44
2022-09-26T19:42:57.040Z,10.50
2022-09-26T19:45:25.398Z,10.46
2022-09-26T19:47:54.879Z,10.49
2022-09-26T19:50:25.257Z,10.45
2022-09-26T19:52:55.176Z,10.40
2022-09-26T19:55:26.256Z,10.46
2022-09-26T19:57:54.411Z,10.25
2022-09-26T20:00:21.559Z,10.29
2022-09-26T20:02:51.849Z,10.30
2022-09-26T20:05:25.563Z,10.33
2022-09-26T20:07:53.463Z,10.33
2022-09-26T20:10:25.057Z,10.26
2022-09-26T20:12:52.058Z,10.24
2022-09-26T20:15:22.430Z,10.24
2022-09-26T20:17:50.728Z,10.20
2022-09-26T20:20:25.114Z,10.13
2022-09-26T20:22:53.708Z,10.11
2022-09-26T20:25:27.049Z,10.02
2022-09-26T20:27:55.446Z,10.05
2022-09-26T20:30:41.426Z,10.04
2022-09-26T20:33:10.351Z,10.07
2022-09-26T20:35:44.156Z,10.05
2022-09-26T20:38:33.084Z,10.04
2022-09-26T20:41:13.302Z,10.02
2022-09-26T20:43:44.438Z,10.01
2022-09-26T20:46:12.239Z,9.97
2022-09-26T20:48:42.151Z,9.93
2022-09-26T20:51:20.856Z,9.95
2022-09-26T20:53:47.880Z,10.00
2022-09-26T20:56:16.709Z,9.99
2022-09-26T20:58:45.234Z,9.85
2022-09-26T21:01:16.983Z,9.89
2022-09-26T21:03:55.615Z,9.93
2022-09-26T21:06:31.939Z,9.94
2022-09-26T21:08:58.907Z,9.92
2022-09-26T21:11:26.138Z,9.92
2022-09-26T21:13:53.214Z,9.80
2022-09-26T21:16:21.910Z,9.89
2022-09-26T21:18:52.565Z,9.84
2022-09-26T21:21:26.872Z,9.85
2022-09-26T21:23:54.121Z,9.87
2022-09-26T21:26:26.936Z,9.86
2022-09-26T21:28:55.872Z,9.81
2022-09-26T21:31:35.948Z,9.85
2022-09-26T21:34:15.641Z,9.74
2022-09-26T21:36:42.575Z,9.79
2022-09-26T21:39:09.548Z,9.77
2022-09-26T21:41:37.043Z,9.74
2022-09-26T21:44:13.946Z,9.67
2022-09-26T21:46:40.891Z,9.73
2022-09-26T21:49:07.887Z,9.74
2022-09-26T21:51:35.979Z,9.71
2022-09-26T21:54:15.656Z,9.68
2022-09-26T21:56:57.511Z,9.70
2022-09-26T21:59:24.993Z,9.63
2022-09-26T22:01:52.049Z,9.66
2022-09-26T22:04:20.601Z,9.63
2022-09-26T22:06:47.664Z,9.54
2022-09-26T22:09:15.033Z,9.60
2022-09-26T22:11:42.016Z,9.59
2022-09-26T22:14:09.036Z,9.53
2022-09-26T22:16:35.995Z,9.56
2022-09-26T22:19:04.975Z,9.51
2022-09-26T22:21:32.344Z,9.54
2022-09-26T22:23:59.979Z,9.52
2022-09-26T22:26:27.903Z,9.46
2022-09-26T22:28:54.842Z,9.46
2022-09-26T22:31:21.803Z,9.47
2022-09-26T22:33:48.787Z,9.39
2022-09-26T22:36:16.243Z,9.38
2022-09-26T22:38:43.239Z,9.42
2022-09-26T22:41:10.708Z,9.39
2022-09-26T22:43:37.644Z,9.39
2022-09-26T22:46:09.475Z,9.39
2022-09-26T22:48:39.571Z,9.36
2022-09-26T22:51:07.454Z,9.37
2022-09-26T22:53:37.091Z,9.36
2022-09-26T22:56:08.074Z,9.31
2022-09-26T22:58:40.057Z,9.34
2022-09-26T23:01:11.897Z,9.34
2022-09-26T23:03:39.606Z,9.32
2022-09-26T23:06:08.209Z,9.32
2022-09-26T23:08:36.486Z,9.32
2022-09-26T23:11:05.209Z,9.29
2022-09-26T23:13:34.228Z,9.27
2022-09-26T23:16:20.411Z,9.27
2022-09-26T23:18:49.869Z,9.26
2022-09-26T23:21:20.367Z,9.20
2022-09-26T23:23:50.762Z,9.18
2022-09-26T23:26:24.199Z,9.16
2022-09-26T23:28:53.442Z,9.06
2022-09-26T23:31:21.541Z,9.11
2022-09-26T23:33:48.836Z,9.08
2022-09-26T23:36:15.796Z,9.06
2022-09-26T23:38:43.181Z,9.04
2022-09-26T23:41:11.715Z,8.98
2022-09-26T23:43:39.912Z,8.98
2022-09-26T23:46:07.909Z,8.92
2022-09-26T23:48:35.746Z,8.91
2022-09-26T23:51:03.722Z,8.88
2022-09-26T23:53:30.723Z,8.84
2022-09-26T23:56:10.588Z,8.83
2022-09-26T23:58:38.683Z,8.78
